createdAt,value
2018-07-14T00:01:52.384Z,7.60
2018-07-14T00:04:21.270Z,7.70
2018-07-14T00:06:50.611Z,8.13
2018-07-14T00:09:19.634Z,8.33
2018-07-14T00:11:48.155Z,8.40
2018-07-14T00:14:17.162Z,7.40
2018-07-14T00:16:46.036Z,7.63
2018-07-14T00:19:14.004Z,8.20
2018-07-14T00:21:45.442Z,7.97
2018-07-14T00:24:13.683Z,8.27
2018-07-14T00:26:42.873Z,8.40
2018-07-14T00:29:11.263Z,8.70
2018-07-14T00:31:40.302Z,8.50
2018-07-14T00:34:09.090Z,8.70
2018-07-14T00:36:51.225Z,8.80
2018-07-14T00:42:07.277Z,8.73
2018-07-14T00:44:36.801Z,8.70
2018-07-14T00:47:05.697Z,9.27
2018-07-14T00:49:33.746Z,9.30
2018-07-14T00:52:03.441Z,9.47
2018-07-14T00:54:32.084Z,8.33
2018-07-14T00:57:00.385Z,9.90
2018-07-14T01:00:00.641Z,9.40
2018-07-14T01:02:30.748Z,9.53
2018-07-14T01:05:00.681Z,9.23
2018-07-14T01:07:30.669Z,9.77
2018-07-14T01:10:03.172Z,10.43
2018-07-14T01:12:56.504Z,9.43
2018-07-14T01:15:26.821Z,9.57
2018-07-14T01:17:55.694Z,9.73
2018-07-14T01:20:24.286Z,9.47
2018-07-14T01:22:54.117Z,10.73
2018-07-14T01:25:46.512Z,10.17
2018-07-14T01:28:19.658Z,9.97
2018-07-14T01:30:48.988Z,11.10
2018-07-14T01:33:16.834Z,10.53
2018-07-14T01:35:45.739Z,10.47
2018-07-14T01:38:14.056Z,10.07
2018-07-14T01:40:42.252Z,9.80
2018-07-14T01:43:14.050Z,10.90
2018-07-14T01:45:43.436Z,10.33
2018-07-14T01:48:14.058Z,10.20
2018-07-14T01:50:42.949Z,11.00
2018-07-14T01:53:11.001Z,10.40
2018-07-14T01:55:40.370Z,10.97
2018-07-14T01:58:09.216Z,10.20
2018-07-14T02:00:39.115Z,9.70
2018-07-14T02:03:09.109Z,9.63
2018-07-14T02:05:41.676Z,9.77
2018-07-14T02:08:10.806Z,10.20
2018-07-14T02:10:40.555Z,9.70
2018-07-14T02:13:09.540Z,10.57
2018-07-14T02:15:38.631Z,9.80
2018-07-14T02:18:07.624Z,10.33
2018-07-14T02:20:37.205Z,9.80
2018-07-14T02:23:05.947Z,10.63
2018-07-14T02:25:35.079Z,10.70
2018-07-14T02:28:04.787Z,10.13
2018-07-14T02:30:34.630Z,9.00
2018-07-14T02:33:03.573Z,9.03
2018-07-14T02:35:32.588Z,10.13
2018-07-14T02:38:01.226Z,9.40
2018-07-14T02:40:31.509Z,10.13
2018-07-14T02:43:00.957Z,9.27
2018-07-14T02:45:31.346Z,9.20
2018-07-14T02:48:01.541Z,10.27
2018-07-14T02:50:32.495Z,9.70
2018-07-14T02:53:01.995Z,9.00
2018-07-14T02:55:30.638Z,9.03
2018-07-14T02:57:59.491Z,9.60
2018-07-14T03:00:28.194Z,9.67
2018-07-14T03:02:58.122Z,9.90
2018-07-14T03:05:32.680Z,10.00
2018-07-14T03:08:03.346Z,9.27
2018-07-14T03:10:35.098Z,9.37
2018-07-14T03:13:04.351Z,9.00
2018-07-14T03:15:34.332Z,9.47
2018-07-14T03:18:04.255Z,9.57
2018-07-14T03:20:37.668Z,9.03
2018-07-14T03:23:08.167Z,9.17
2018-07-14T03:25:39.648Z,8.53
2018-07-14T03:28:07.358Z,8.03
2018-07-14T03:30:36.272Z,8.57
2018-07-14T03:33:05.022Z,8.97
2018-07-14T03:35:33.272Z,9.10
2018-07-14T03:38:01.196Z,8.97
2018-07-14T03:40:29.883Z,8.83
2018-07-14T03:42:58.598Z,9.17
2018-07-14T03:45:28.411Z,8.63
2018-07-14T03:47:58.962Z,8.90
2018-07-14T03:50:27.883Z,8.97
2018-07-14T03:52:57.565Z,8.37
2018-07-14T03:55:27.511Z,8.23
2018-07-14T03:58:03.398Z,8.50
2018-07-14T04:00:33.238Z,8.33
2018-07-14T04:03:02.746Z,8.37
2018-07-14T04:05:30.934Z,8.90
2018-07-14T04:07:59.085Z,8.50
2018-07-14T04:10:28.676Z,8.10
2018-07-14T04:12:58.254Z,7.93
2018-07-14T04:15:27.379Z,7.67
2018-07-14T04:18:00.891Z,8.47
2018-07-14T04:20:30.971Z,7.87
2018-07-14T04:23:00.043Z,7.57
2018-07-14T04:25:28.281Z,7.80
2018-07-14T04:27:56.760Z,7.63
2018-07-14T04:30:24.899Z,7.50
2018-07-14T04:32:53.209Z,7.40
2018-07-14T04:35:21.414Z,8.43
2018-07-14T04:37:53.632Z,7.30
2018-07-14T04:40:22.828Z,7.37
2018-07-14T04:42:52.235Z,7.77
2018-07-14T04:45:20.653Z,7.40
2018-07-14T04:47:48.926Z,7.00
2018-07-14T04:50:17.072Z,6.97
2018-07-14T04:52:44.950Z,7.10
2018-07-14T04:55:13.201Z,7.60
2018-07-14T04:57:41.492Z,7.67
2018-07-14T05:00:09.972Z,7.43
2018-07-14T05:02:38.958Z,7.13
2018-07-14T05:05:07.463Z,7.60
2018-07-14T05:07:35.523Z,7.60
2018-07-14T05:10:03.991Z,6.70
2018-07-14T05:12:34.270Z,6.83
2018-07-14T05:15:02.664Z,7.20
2018-07-14T05:17:31.631Z,6.40
2018-07-14T05:19:59.676Z,6.57
2018-07-14T05:22:28.269Z,6.93
2018-07-14T05:24:57.498Z,7.50
2018-07-14T05:27:25.816Z,8.53
2018-07-14T05:29:55.548Z,8.17
2018-07-14T05:32:27.486Z,8.27
2018-07-14T05:34:56.190Z,7.63
2018-07-14T05:37:25.092Z,7.63
2018-07-14T05:39:53.013Z,7.17
2018-07-14T05:42:21.033Z,7.40
2018-07-14T05:44:50.311Z,7.17
2018-07-14T05:47:18.853Z,7.10
2018-07-14T05:49:47.508Z,7.43
2018-07-14T05:52:17.551Z,7.63
2018-07-14T05:54:45.193Z,7.20
2018-07-14T05:57:16.214Z,7.57
2018-07-14T05:59:45.106Z,7.73
2018-07-14T06:02:13.905Z,7.83
2018-07-14T06:04:42.782Z,7.47
2018-07-14T06:07:16.493Z,8.27
2018-07-14T06:12:39.869Z,7.77
2018-07-14T06:15:11.057Z,7.77
2018-07-14T06:17:59.355Z,7.20
2018-07-14T06:20:31.922Z,7.10
2018-07-14T06:23:01.652Z,7.33
2018-07-14T06:25:31.593Z,7.60
2018-07-14T06:28:00.772Z,7.37
2018-07-14T06:30:32.294Z,7.03
2018-07-14T06:33:01.399Z,7.87
2018-07-14T06:35:31.939Z,7.07
2018-07-14T06:38:01.885Z,6.70
2018-07-14T06:40:31.066Z,7.50
2018-07-14T06:42:59.343Z,6.97
2018-07-14T06:45:27.636Z,7.53
2018-07-14T06:47:59.864Z,7.37
2018-07-14T06:50:34.204Z,6.93
2018-07-14T06:53:02.605Z,7.67
2018-07-14T06:55:30.184Z,7.60
2018-07-14T06:57:59.569Z,7.17
2018-07-14T07:00:32.568Z,8.40
2018-07-14T07:03:01.404Z,7.57
2018-07-14T07:05:32.885Z,6.70
2018-07-14T07:08:02.570Z,7.30
2018-07-14T07:10:31.896Z,7.43
2018-07-14T07:13:00.277Z,7.83
2018-07-14T07:15:29.614Z,7.03
2018-07-14T07:18:06.181Z,7.93
2018-07-14T07:20:34.587Z,7.40
2018-07-14T07:23:02.212Z,7.27
2018-07-14T07:25:30.450Z,8.77
2018-07-14T07:27:58.919Z,10.17
2018-07-14T07:30:29.263Z,8.47
2018-07-14T07:32:57.701Z,8.20
2018-07-14T07:35:25.650Z,8.03
2018-07-14T07:37:58.664Z,8.37
2018-07-14T07:40:26.841Z,7.67
2018-07-14T07:42:54.832Z,7.27
2018-07-14T07:45:23.093Z,6.87
2018-07-14T07:47:55.071Z,6.80
2018-07-14T07:50:30.669Z,7.87
2018-07-14T07:52:59.421Z,7.00
2018-07-14T07:55:28.146Z,7.13
2018-07-14T07:57:58.970Z,7.23
2018-07-14T08:00:27.945Z,6.60
2018-07-14T08:02:57.601Z,7.20
2018-07-14T08:05:25.971Z,6.83
2018-07-14T08:07:54.407Z,7.03
2018-07-14T08:10:24.017Z,7.13
2018-07-14T08:12:54.080Z,6.73
2018-07-14T08:15:22.318Z,6.70
2018-07-14T08:17:51.733Z,6.70
2018-07-14T08:20:30.587Z,6.33
2018-07-14T08:23:17.605Z,6.70
2018-07-14T08:25:46.466Z,7.13
2018-07-14T08:28:15.316Z,7.47
2018-07-14T08:30:48.273Z,6.80
2018-07-14T08:33:17.232Z,7.67
2018-07-14T08:35:54.407Z,7.27
2018-07-14T08:38:24.545Z,7.57
2018-07-14T08:40:57.853Z,7.27
2018-07-14T08:43:33.593Z,6.73
2018-07-14T08:46:03.677Z,7.30
2018-07-14T08:48:31.399Z,6.80
2018-07-14T08:51:05.367Z,7.97
2018-07-14T08:53:35.431Z,6.87
2018-07-14T08:56:04.395Z,6.97
2018-07-14T08:58:35.169Z,7.40
2018-07-14T09:03:46.863Z,7.13
2018-07-14T09:06:24.178Z,7.77
2018-07-14T09:08:54.517Z,7.73
2018-07-14T09:11:25.426Z,8.63
2018-07-14T09:14:02.798Z,7.97
2018-07-14T09:16:33.768Z,7.10
2018-07-14T09:19:34.498Z,7.67
2018-07-14T09:22:04.981Z,8.17
2018-07-14T09:24:36.442Z,8.10
2018-07-14T09:27:10.393Z,6.37
2018-07-14T09:29:42.105Z,6.83
2018-07-14T09:32:29.324Z,6.57
2018-07-14T09:35:25.223Z,6.50
2018-07-14T09:38:22.242Z,5.90
2018-07-14T09:41:32.183Z,6.17
2018-07-14T09:46:46.071Z,6.23
2018-07-14T09:49:17.124Z,5.80
2018-07-14T09:52:06.757Z,5.53
2018-07-14T09:54:39.885Z,4.63
2018-07-14T09:57:09.631Z,5.50
2018-07-14T09:59:39.556Z,5.17
2018-07-14T10:02:09.851Z,4.67
2018-07-14T10:07:19.112Z,4.70
2018-07-14T10:09:55.798Z,4.80
2018-07-14T10:15:05.806Z,4.57
2018-07-14T10:17:36.240Z,3.90
2018-07-14T10:20:06.480Z,4.07
2018-07-14T10:22:38.380Z,4.40
2018-07-14T10:25:07.185Z,3.73
2018-07-14T10:27:36.888Z,3.83
2018-07-14T10:30:05.256Z,3.43
2018-07-14T10:32:33.920Z,4.17
2018-07-14T10:35:11.960Z,3.77
2018-07-14T10:37:41.019Z,3.60
2018-07-14T10:40:14.156Z,3.57
2018-07-14T10:42:44.358Z,3.97
2018-07-14T10:45:12.432Z,3.67
2018-07-14T10:47:41.066Z,3.60
2018-07-14T10:50:09.490Z,3.03
2018-07-14T10:52:38.907Z,3.80
2018-07-14T10:55:07.336Z,3.13
2018-07-14T10:57:37.767Z,3.57
2018-07-14T11:00:09.069Z,3.60
2018-07-14T11:02:38.034Z,3.50
2018-07-14T11:05:07.788Z,3.50
2018-07-14T11:07:37.897Z,3.10
2018-07-14T11:10:07.182Z,3.73
2018-07-14T11:12:36.184Z,3.13
2018-07-14T11:15:05.584Z,3.33
2018-07-14T11:17:34.569Z,3.57
2018-07-14T11:20:09.488Z,3.70
2018-07-14T11:22:37.708Z,3.27
2018-07-14T11:25:06.258Z,3.17
2018-07-14T11:27:35.743Z,3.00
2018-07-14T11:30:06.839Z,3.33
2018-07-14T11:32:35.273Z,3.17
2018-07-14T11:35:03.580Z,2.93
2018-07-14T11:37:35.083Z,3.00
2018-07-14T11:40:07.842Z,2.80
2018-07-14T11:42:37.374Z,2.87
2018-07-14T11:45:05.754Z,3.03
2018-07-14T11:47:35.236Z,2.73
2018-07-14T11:50:05.445Z,2.53
2018-07-14T11:52:35.242Z,2.83
2018-07-14T11:55:04.367Z,2.60
2018-07-14T11:57:33.068Z,3.20
2018-07-14T12:00:14.263Z,3.03
2018-07-14T12:03:01.149Z,3.20
2018-07-14T12:05:54.538Z,3.17
2018-07-14T12:08:31.859Z,3.17
2018-07-14T12:11:06.361Z,2.87
2018-07-14T12:13:35.363Z,3.03
2018-07-14T12:16:03.708Z,2.93
2018-07-14T12:18:32.787Z,2.80
2018-07-14T12:21:06.145Z,2.80
2018-07-14T12:23:37.893Z,2.70
2018-07-14T12:26:07.704Z,3.17
2018-07-14T12:28:38.560Z,2.87
2018-07-14T12:31:08.745Z,2.67
2018-07-14T12:33:42.446Z,2.50
2018-07-14T12:36:15.570Z,3.07
2018-07-14T12:38:45.166Z,2.70
2018-07-14T12:41:15.370Z,2.97
2018-07-14T12:43:52.335Z,2.90
2018-07-14T12:46:22.192Z,2.53
2018-07-14T12:48:51.752Z,2.70
2018-07-14T12:51:22.109Z,3.00
2018-07-14T12:53:55.406Z,2.60
2018-07-14T12:56:23.415Z,3.00
2018-07-14T12:58:51.989Z,2.90
2018-07-14T13:01:21.180Z,2.87
2018-07-14T13:03:49.468Z,2.93
2018-07-14T13:06:18.405Z,3.10
2018-07-14T13:08:48.592Z,3.30
2018-07-14T13:11:16.567Z,3.50
2018-07-14T13:13:44.717Z,2.87
2018-07-14T13:16:19.502Z,2.93
2018-07-14T13:18:47.720Z,2.70
2018-07-14T13:21:17.533Z,2.70
2018-07-14T13:23:46.794Z,2.90
2018-07-14T13:26:15.597Z,2.70
2018-07-14T13:28:55.104Z,2.90
2018-07-14T13:31:40.279Z,3.00
2018-07-14T13:34:24.922Z,2.93
2018-07-14T13:37:00.839Z,2.50
2018-07-14T13:39:31.236Z,2.93
2018-07-14T13:42:02.869Z,2.87
2018-07-14T13:44:35.880Z,3.30
2018-07-14T13:47:05.429Z,2.80
2018-07-14T13:49:34.043Z,2.80
2018-07-14T13:52:03.157Z,2.70
2018-07-14T13:54:38.926Z,3.03
2018-07-14T13:57:08.359Z,2.83
2018-07-14T13:59:37.725Z,3.00
2018-07-14T14:02:07.793Z,2.63
2018-07-14T14:04:37.615Z,2.70
2018-07-14T14:07:09.013Z,3.10
2018-07-14T14:09:37.647Z,2.87
2018-07-14T14:12:08.891Z,3.00
2018-07-14T14:14:37.373Z,2.80
2018-07-14T14:17:08.438Z,2.93
2018-07-14T14:19:45.262Z,2.97
2018-07-14T14:22:14.310Z,3.10
2018-07-14T14:24:42.840Z,3.10
2018-07-14T14:27:14.423Z,2.97
2018-07-14T14:29:47.689Z,3.00
2018-07-14T14:32:21.314Z,3.13
2018-07-14T14:34:53.516Z,3.67
2018-07-14T14:37:24.133Z,3.10
2018-07-14T14:39:53.380Z,3.00
2018-07-14T14:42:26.075Z,3.17
2018-07-14T14:45:00.660Z,3.17
2018-07-14T14:50:04.722Z,3.37
2018-07-14T14:52:37.282Z,3.10
2018-07-14T14:55:09.078Z,3.07
2018-07-14T14:57:39.075Z,3.60
2018-07-14T15:00:11.492Z,3.53
2018-07-14T15:02:43.399Z,3.13
2018-07-14T15:05:12.688Z,3.03
2018-07-14T15:07:43.333Z,2.77
2018-07-14T15:10:13.364Z,3.07
2018-07-14T15:12:42.426Z,3.83
2018-07-14T15:15:12.282Z,4.60
2018-07-14T15:17:44.241Z,4.53
2018-07-14T15:20:12.617Z,4.27
2018-07-14T15:22:42.221Z,4.30
2018-07-14T15:28:06.104Z,3.77
2018-07-14T15:30:34.391Z,3.80
2018-07-14T15:33:03.474Z,3.67
2018-07-14T15:35:42.275Z,3.63
2018-07-14T15:38:12.890Z,3.20
2018-07-14T15:40:46.209Z,3.47
2018-07-14T15:43:17.939Z,3.37
2018-07-14T15:45:53.274Z,3.27
2018-07-14T15:48:26.978Z,3.27
2018-07-14T15:51:01.080Z,3.40
2018-07-14T15:53:30.560Z,3.97
2018-07-14T15:55:58.761Z,3.27
2018-07-14T15:58:31.436Z,3.60
2018-07-14T16:01:06.162Z,2.90
2018-07-14T16:03:37.342Z,3.33
2018-07-14T16:06:10.061Z,3.23
2018-07-14T16:08:45.387Z,3.27
2018-07-14T16:11:14.283Z,3.37
2018-07-14T16:13:46.497Z,3.40
2018-07-14T16:16:14.871Z,3.70
2018-07-14T16:18:44.023Z,3.57
2018-07-14T16:27:30.976Z,4.70
2018-07-14T16:30:11.590Z,5.03
2018-07-14T16:33:00.963Z,4.30
2018-07-14T16:35:38.044Z,4.43
2018-07-14T16:38:12.390Z,4.37
2018-07-14T16:41:02.373Z,4.30
2018-07-14T16:44:01.405Z,4.53
2018-07-14T16:46:35.846Z,4.00
2018-07-14T16:49:15.533Z,4.10
2018-07-14T16:51:46.174Z,4.73
2018-07-14T16:54:15.075Z,4.73
2018-07-14T16:57:05.166Z,4.10
2018-07-14T16:59:39.118Z,4.30
2018-07-14T17:02:17.248Z,4.37
2018-07-14T17:05:03.839Z,4.93
2018-07-14T17:07:33.022Z,4.80
2018-07-14T17:10:04.591Z,4.80
2018-07-14T17:12:38.150Z,4.80
2018-07-14T17:15:09.492Z,5.73
2018-07-14T17:17:39.554Z,5.80
2018-07-14T17:20:09.080Z,6.17
2018-07-14T17:22:40.489Z,4.60
2018-07-14T17:25:12.263Z,5.60
2018-07-14T17:27:41.171Z,6.10
2018-07-14T17:30:12.641Z,6.10
2018-07-14T17:32:50.409Z,5.73
2018-07-14T17:35:23.065Z,5.70
2018-07-14T17:37:54.021Z,6.37
2018-07-14T17:40:23.894Z,5.80
2018-07-14T17:42:53.065Z,5.47
2018-07-14T17:45:25.028Z,5.93
2018-07-14T17:48:01.366Z,6.00
2018-07-14T17:50:33.839Z,6.50
2018-07-14T17:53:07.351Z,6.33
2018-07-14T17:55:43.359Z,5.80
2018-07-14T17:58:14.112Z,6.13
2018-07-14T18:00:43.537Z,5.60
2018-07-14T18:03:27.948Z,5.83
2018-07-14T18:06:10.258Z,5.20
2018-07-14T18:08:48.444Z,5.67
2018-07-14T18:11:20.322Z,5.43
2018-07-14T18:13:48.664Z,5.30
2018-07-14T18:16:39.444Z,5.03
2018-07-14T18:19:24.205Z,5.23
2018-07-14T18:21:58.187Z,5.23
2018-07-14T18:24:38.761Z,5.20
2018-07-14T18:33:26.765Z,4.60
2018-07-14T18:36:06.227Z,4.57
2018-07-14T18:38:45.373Z,3.97
2018-07-14T18:44:41.741Z,4.70
2018-07-14T18:47:14.411Z,4.30
2018-07-14T18:49:44.977Z,4.07
2018-07-14T18:52:22.907Z,4.60
2018-07-14T18:54:56.920Z,4.30
2018-07-14T18:57:30.292Z,4.20
2018-07-14T19:00:08.726Z,3.93
2018-07-14T19:05:27.322Z,3.80
2018-07-14T19:07:56.890Z,4.27
2018-07-14T19:10:29.643Z,4.07
2018-07-14T19:12:58.179Z,4.03
2018-07-14T19:15:29.916Z,4.20
2018-07-14T19:17:59.183Z,4.30
2018-07-14T19:20:32.661Z,3.80
2018-07-14T19:23:01.737Z,4.13
2018-07-14T19:25:29.692Z,3.70
2018-07-14T19:27:59.212Z,4.03
2018-07-14T19:30:27.847Z,3.87
2018-07-14T19:35:57.652Z,3.97
2018-07-14T19:38:27.193Z,4.17
2018-07-14T19:40:59.258Z,3.87
2018-07-14T19:43:27.325Z,3.80
2018-07-14T19:45:56.355Z,4.00
2018-07-14T19:48:29.132Z,3.80
2018-07-14T19:50:58.217Z,4.07
2018-07-14T19:53:27.613Z,4.07
2018-07-14T19:55:56.760Z,3.57
2018-07-14T19:58:28.048Z,3.53
2018-07-14T20:00:56.756Z,3.37
2018-07-14T20:03:25.950Z,3.60
2018-07-14T20:05:55.833Z,4.00
2018-07-14T20:08:23.656Z,4.20
2018-07-14T20:10:52.611Z,4.10
2018-07-14T20:13:28.357Z,4.23
2018-07-14T20:15:58.906Z,4.13
2018-07-14T20:18:29.040Z,4.17
2018-07-14T20:21:00.414Z,3.93
2018-07-14T20:23:29.654Z,3.90
2018-07-14T20:25:59.296Z,4.47
2018-07-14T20:28:28.412Z,4.47
2018-07-14T20:30:57.952Z,4.60
2018-07-14T20:33:27.417Z,4.80
2018-07-14T20:35:56.094Z,4.70
2018-07-14T20:38:28.062Z,5.17
2018-07-14T20:40:57.678Z,4.73
2018-07-14T20:43:29.871Z,4.70
2018-07-14T20:46:00.669Z,5.40
2018-07-14T20:48:33.392Z,5.33
2018-07-14T20:53:39.695Z,5.17
2018-07-14T20:56:08.213Z,5.03
2018-07-14T20:58:37.304Z,5.50
2018-07-14T21:01:06.912Z,5.30
2018-07-14T21:03:35.696Z,5.40
2018-07-14T21:06:06.308Z,5.27
2018-07-14T21:08:35.735Z,5.13
2018-07-14T21:11:08.914Z,4.83
2018-07-14T21:13:37.637Z,5.13
2018-07-14T21:16:06.032Z,5.30
2018-07-14T21:18:35.174Z,4.87
2018-07-14T21:21:05.850Z,4.73
2018-07-14T21:23:34.743Z,4.70
2018-07-14T21:26:05.941Z,4.73
2018-07-14T21:28:34.936Z,5.17
2018-07-14T21:31:04.215Z,4.97
2018-07-14T21:33:34.687Z,5.20
2018-07-14T21:36:09.109Z,5.57
2018-07-14T22:04:14.273Z,4.87
2018-07-14T22:06:51.596Z,5.03
2018-07-14T22:09:26.179Z,5.60
2018-07-14T22:11:56.130Z,5.13
2018-07-14T22:17:16.024Z,5.17
2018-07-14T22:22:27.158Z,4.93
2018-07-14T22:41:02.674Z,4.90
2018-07-14T22:43:38.419Z,4.90
2018-07-14T22:46:12.053Z,4.97
2018-07-14T22:54:00.445Z,6.03
2018-07-14T22:59:14.619Z,6.07
2018-07-14T23:17:37.801Z,5.10
2018-07-14T23:28:12.387Z,4.57
2018-07-14T23:30:52.839Z,4.93
2018-07-14T23:33:22.923Z,4.70
2018-07-14T23:38:36.946Z,4.47
2018-07-14T23:41:12.314Z,4.57
2018-07-14T23:43:47.906Z,4.33
